Terminal Aerodrome Forecast
Issued by NWS

Home | Current Version | Previous Version | Graphics & Text | Print | Product List | Glossary On
Versions: 1 2 3 4 5 6 7 8 9 10 11 12 13 14 15
000
FTUS43 KOAX 201700
TAFCDR
TAF
KCDR 201720Z 2018/2118 27009KT P6SM SCT100
     FM202000 28011KT P6SM VCSH SCT060 BKN090
     FM210200 VRB03KT P6SM BKN150=

USA.gov is the U.S. government's official web portal to all federal, state and local government web resources and services.